sensor_id;sensor_type;location;lat;lon;timestamp;temperature;humidity
45803;DHT22;31504;51.716;9.184;2023-03-11T00:02:57;18.30;48.00
45803;DHT22;31504;51.716;9.184;2023-03-11T00:05:59;18.30;47.40
45803;DHT22;31504;51.716;9.184;2023-03-11T00:09:00;18.30;47.80
45803;DHT22;31504;51.716;9.184;2023-03-11T00:12:01;18.30;47.80
45803;DHT22;31504;51.716;9.184;2023-03-11T00:15:02;18.30;48.00
45803;DHT22;31504;51.716;9.184;2023-03-11T00:18:03;18.30;47.90
45803;DHT22;31504;51.716;9.184;2023-03-11T00:21:03;18.30;47.70
45803;DHT22;31504;51.716;9.184;2023-03-11T00:24:04;18.30;47.90
45803;DHT22;31504;51.716;9.184;2023-03-11T00:27:04;18.30;47.80
45803;DHT22;31504;51.716;9.184;2023-03-11T00:30:06;18.30;48.00
45803;DHT22;31504;51.716;9.184;2023-03-11T00:33:07;18.30;48.00
45803;DHT22;31504;51.716;9.184;2023-03-11T00:36:11;18.30;47.60
45803;DHT22;31504;51.716;9.184;2023-03-11T00:39:20;18.30;48.10
45803;DHT22;31504;51.716;9.184;2023-03-11T00:42:20;18.30;47.80
45803;DHT22;31504;51.716;9.184;2023-03-11T00:45:21;18.30;48.10
45803;DHT22;31504;51.716;9.184;2023-03-11T00:48:21;18.30;48.00
45803;DHT22;31504;51.716;9.184;2023-03-11T00:51:22;18.30;48.00
45803;DHT22;31504;51.716;9.184;2023-03-11T00:54:22;18.30;48.00
45803;DHT22;31504;51.716;9.184;2023-03-11T00:57:23;18.30;48.10
45803;DHT22;31504;51.716;9.184;2023-03-11T01:00:23;18.30;48.20
45803;DHT22;31504;51.716;9.184;2023-03-11T01:03:24;18.30;47.90
45803;DHT22;31504;51.716;9.184;2023-03-11T01:06:24;18.30;48.00
45803;DHT22;31504;51.716;9.184;2023-03-11T01:09:25;18.30;48.10
45803;DHT22;31504;51.716;9.184;2023-03-11T01:12:25;18.30;47.80
45803;DHT22;31504;51.716;9.184;2023-03-11T01:15:27;18.30;48.00
45803;DHT22;31504;51.716;9.184;2023-03-11T01:18:28;18.30;48.00
45803;DHT22;31504;51.716;9.184;2023-03-11T01:21:29;18.30;47.80
45803;DHT22;31504;51.716;9.184;2023-03-11T01:24:29;18.20;47.80
45803;DHT22;31504;51.716;9.184;2023-03-11T01:27:30;18.20;48.00
45803;DHT22;31504;51.716;9.184;2023-03-11T01:30:30;18.30;48.00
45803;DHT22;31504;51.716;9.184;2023-03-11T01:33:31;18.30;48.10
45803;DHT22;31504;51.716;9.184;2023-03-11T01:36:31;18.30;47.90
45803;DHT22;31504;51.716;9.184;2023-03-11T01:39:31;18.30;47.80
45803;DHT22;31504;51.716;9.184;2023-03-11T01:42:32;18.30;47.80
45803;DHT22;31504;51.716;9.184;2023-03-11T01:48:58;18.30;48.10
45803;DHT22;31504;51.716;9.184;2023-03-11T01:51:59;18.30;48.60
45803;DHT22;31504;51.716;9.184;2023-03-11T01:55:03;18.20;47.70
45803;DHT22;31504;51.716;9.184;2023-03-11T01:58:05;18.30;48.00
45803;DHT22;31504;51.716;9.184;2023-03-11T02:01:06;18.30;47.90
45803;DHT22;31504;51.716;9.184;2023-03-11T02:04:07;18.20;47.80
45803;DHT22;31504;51.716;9.184;2023-03-11T02:07:08;18.30;47.90
45803;DHT22;31504;51.716;9.184;2023-03-11T02:10:09;18.20;48.00
45803;DHT22;31504;51.716;9.184;2023-03-11T02:13:10;18.20;47.60
45803;DHT22;31504;51.716;9.184;2023-03-11T02:16:11;18.20;47.50
45803;DHT22;31504;51.716;9.184;2023-03-11T02:22:32;18.20;47.70
45803;DHT22;31504;51.716;9.184;2023-03-11T02:28:33;18.30;47.80
45803;DHT22;31504;51.716;9.184;2023-03-11T02:31:36;18.30;47.70
45803;DHT22;31504;51.716;9.184;2023-03-11T02:34:37;18.20;47.90
45803;DHT22;31504;51.716;9.184;2023-03-11T02:37:42;18.20;47.80
45803;DHT22;31504;51.716;9.184;2023-03-11T02:40:50;18.20;47.70
45803;DHT22;31504;51.716;9.184;2023-03-11T02:43:52;18.20;47.70
45803;DHT22;31504;51.716;9.184;2023-03-11T02:46:52;18.20;47.90
45803;DHT22;31504;51.716;9.184;2023-03-11T02:49:53;18.20;47.90
45803;DHT22;31504;51.716;9.184;2023-03-11T02:52:54;18.20;47.90
45803;DHT22;31504;51.716;9.184;2023-03-11T02:55:54;18.20;47.90
45803;DHT22;31504;51.716;9.184;2023-03-11T02:58:55;18.20;47.60
45803;DHT22;31504;51.716;9.184;2023-03-11T03:01:55;18.20;47.70
45803;DHT22;31504;51.716;9.184;2023-03-11T03:04:55;18.20;47.80
45803;DHT22;31504;51.716;9.184;2023-03-11T03:07:56;18.20;47.70
45803;DHT22;31504;51.716;9.184;2023-03-11T03:10:56;18.20;47.80
45803;DHT22;31504;51.716;9.184;2023-03-11T03:13:59;18.20;47.70
45803;DHT22;31504;51.716;9.184;2023-03-11T03:16:59;18.20;47.50
45803;DHT22;31504;51.716;9.184;2023-03-11T03:19:59;18.20;47.80
45803;DHT22;31504;51.716;9.184;2023-03-11T03:23:01;18.20;47.60
45803;DHT22;31504;51.716;9.184;2023-03-11T03:26:02;18.20;47.60
45803;DHT22;31504;51.716;9.184;2023-03-11T03:29:03;18.20;47.60
45803;DHT22;31504;51.716;9.184;2023-03-11T03:32:04;18.20;47.60
45803;DHT22;31504;51.716;9.184;2023-03-11T03:35:04;18.20;47.60
45803;DHT22;31504;51.716;9.184;2023-03-11T03:38:05;18.20;47.70
45803;DHT22;31504;51.716;9.184;2023-03-11T03:41:05;18.20;47.70
45803;DHT22;31504;51.716;9.184;2023-03-11T03:44:06;18.20;47.70
45803;DHT22;31504;51.716;9.184;2023-03-11T03:47:06;18.20;47.60
45803;DHT22;31504;51.716;9.184;2023-03-11T03:50:09;18.20;47.70
45803;DHT22;31504;51.716;9.184;2023-03-11T03:53:09;18.20;47.90
45803;DHT22;31504;51.716;9.184;2023-03-11T03:56:10;18.20;47.80
45803;DHT22;31504;51.716;9.184;2023-03-11T03:59:11;18.20;47.80
45803;DHT22;31504;51.716;9.184;2023-03-11T04:02:12;18.20;47.50
45803;DHT22;31504;51.716;9.184;2023-03-11T04:05:12;18.20;47.70
45803;DHT22;31504;51.716;9.184;2023-03-11T04:08:12;18.20;47.50
45803;DHT22;31504;51.716;9.184;2023-03-11T04:11:13;18.20;47.80
45803;DHT22;31504;51.716;9.184;2023-03-11T04:14:13;18.20;47.60
45803;DHT22;31504;51.716;9.184;2023-03-11T04:17:14;18.20;47.60
45803;DHT22;31504;51.716;9.184;2023-03-11T04:20:17;18.20;47.70
45803;DHT22;31504;51.716;9.184;2023-03-11T04:23:17;18.20;47.60
45803;DHT22;31504;51.716;9.184;2023-03-11T04:26:17;18.20;47.70
45803;DHT22;31504;51.716;9.184;2023-03-11T04:29:18;18.20;47.60
45803;DHT22;31504;51.716;9.184;2023-03-11T04:32:18;18.20;47.60
45803;DHT22;31504;51.716;9.184;2023-03-11T04:35:19;18.20;47.50
45803;DHT22;31504;51.716;9.184;2023-03-11T04:38:19;18.20;47.70
45803;DHT22;31504;51.716;9.184;2023-03-11T04:41:20;18.20;47.60
45803;DHT22;31504;51.716;9.184;2023-03-11T04:44:20;18.20;47.60
45803;DHT22;31504;51.716;9.184;2023-03-11T04:47:20;18.20;47.60
45803;DHT22;31504;51.716;9.184;2023-03-11T04:50:21;18.20;47.50
45803;DHT22;31504;51.716;9.184;2023-03-11T04:53:22;18.20;47.60
45803;DHT22;31504;51.716;9.184;2023-03-11T04:56:22;18.20;47.60
45803;DHT22;31504;51.716;9.184;2023-03-11T04:59:22;18.20;47.50
45803;DHT22;31504;51.716;9.184;2023-03-11T05:02:23;18.20;47.60
45803;DHT22;31504;51.716;9.184;2023-03-11T05:05:23;18.20;47.40
45803;DHT22;31504;51.716;9.184;2023-03-11T05:08:24;18.20;47.50
45803;DHT22;31504;51.716;9.184;2023-03-11T05:11:25;18.20;47.40
45803;DHT22;31504;51.716;9.184;2023-03-11T05:14:25;18.20;47.40
45803;DHT22;31504;51.716;9.184;2023-03-11T05:17:25;18.10;47.40
45803;DHT22;31504;51.716;9.184;2023-03-11T05:20:26;18.10;47.40
45803;DHT22;31504;51.716;9.184;2023-03-11T05:23:26;18.20;47.60
45803;DHT22;31504;51.716;9.184;2023-03-11T05:26:26;18.20;47.50
45803;DHT22;31504;51.716;9.184;2023-03-11T05:29:27;18.20;47.50
45803;DHT22;31504;51.716;9.184;2023-03-11T05:32:27;18.20;47.50
45803;DHT22;31504;51.716;9.184;2023-03-11T05:35:28;18.20;47.50
45803;DHT22;31504;51.716;9.184;2023-03-11T05:38:28;18.20;47.40
45803;DHT22;31504;51.716;9.184;2023-03-11T05:41:29;18.10;47.40
45803;DHT22;31504;51.716;9.184;2023-03-11T05:44:30;18.20;47.40
45803;DHT22;31504;51.716;9.184;2023-03-11T05:47:30;18.10;47.30
45803;DHT22;31504;51.716;9.184;2023-03-11T05:50:31;18.10;47.40
45803;DHT22;31504;51.716;9.184;2023-03-11T05:53:31;18.20;47.40
45803;DHT22;31504;51.716;9.184;2023-03-11T05:56:31;18.10;47.40
45803;DHT22;31504;51.716;9.184;2023-03-11T05:59:32;18.20;47.40
45803;DHT22;31504;51.716;9.184;2023-03-11T06:02:34;18.20;47.30
45803;DHT22;31504;51.716;9.184;2023-03-11T06:05:34;18.20;47.40
45803;DHT22;31504;51.716;9.184;2023-03-11T06:08:35;18.20;47.20
45803;DHT22;31504;51.716;9.184;2023-03-11T06:11:36;18.20;47.40
45803;DHT22;31504;51.716;9.184;2023-03-11T06:14:36;18.20;47.20
45803;DHT22;31504;51.716;9.184;2023-03-11T06:17:37;18.10;47.30
45803;DHT22;31504;51.716;9.184;2023-03-11T06:20:38;18.10;47.30
45803;DHT22;31504;51.716;9.184;2023-03-11T06:23:38;18.10;47.30
45803;DHT22;31504;51.716;9.184;2023-03-11T06:26:39;18.10;47.30
45803;DHT22;31504;51.716;9.184;2023-03-11T06:29:39;18.10;47.30
45803;DHT22;31504;51.716;9.184;2023-03-11T06:32:39;18.10;47.30
45803;DHT22;31504;51.716;9.184;2023-03-11T06:35:42;18.20;47.30
45803;DHT22;31504;51.716;9.184;2023-03-11T06:38:42;18.10;47.30
45803;DHT22;31504;51.716;9.184;2023-03-11T06:41:43;18.10;47.10
45803;DHT22;31504;51.716;9.184;2023-03-11T06:44:45;18.10;47.20
45803;DHT22;31504;51.716;9.184;2023-03-11T06:47:46;18.10;47.30
45803;DHT22;31504;51.716;9.184;2023-03-11T06:50:53;18.10;47.40
45803;DHT22;31504;51.716;9.184;2023-03-11T06:53:53;18.10;47.20
45803;DHT22;31504;51.716;9.184;2023-03-11T06:56:54;18.10;47.10
45803;DHT22;31504;51.716;9.184;2023-03-11T06:59:54;18.10;47.10
45803;DHT22;31504;51.716;9.184;2023-03-11T07:02:55;18.10;47.00
45803;DHT22;31504;51.716;9.184;2023-03-11T07:05:55;18.10;46.50
45803;DHT22;31504;51.716;9.184;2023-03-11T07:08:56;18.20;46.70
45803;DHT22;31504;51.716;9.184;2023-03-11T07:11:57;18.30;46.80
45803;DHT22;31504;51.716;9.184;2023-03-11T07:14:57;18.30;46.70
45803;DHT22;31504;51.716;9.184;2023-03-11T07:17:58;18.20;46.90
45803;DHT22;31504;51.716;9.184;2023-03-11T07:20:59;18.20;47.10
45803;DHT22;31504;51.716;9.184;2023-03-11T07:24:00;18.10;47.00
45803;DHT22;31504;51.716;9.184;2023-03-11T07:27:01;18.10;47.20
45803;DHT22;31504;51.716;9.184;2023-03-11T07:30:01;18.10;47.00
45803;DHT22;31504;51.716;9.184;2023-03-11T07:33:02;18.20;46.90
45803;DHT22;31504;51.716;9.184;2023-03-11T07:36:06;18.30;45.70
45803;DHT22;31504;51.716;9.184;2023-03-11T07:39:07;18.40;46.10
45803;DHT22;31504;51.716;9.184;2023-03-11T07:42:11;18.40;46.10
45803;DHT22;31504;51.716;9.184;2023-03-11T07:45:12;18.40;46.30
45803;DHT22;31504;51.716;9.184;2023-03-11T07:48:12;18.50;45.60
45803;DHT22;31504;51.716;9.184;2023-03-11T07:51:17;18.50;46.10
45803;DHT22;31504;51.716;9.184;2023-03-11T07:54:18;18.40;45.60
45803;DHT22;31504;51.716;9.184;2023-03-11T07:57:18;18.50;46.10
45803;DHT22;31504;51.716;9.184;2023-03-11T08:00:19;18.50;45.70
45803;DHT22;31504;51.716;9.184;2023-03-11T08:03:19;18.50;46.00
45803;DHT22;31504;51.716;9.184;2023-03-11T08:06:20;18.50;45.50
45803;DHT22;31504;51.716;9.184;2023-03-11T08:09:21;18.60;44.30
45803;DHT22;31504;51.716;9.184;2023-03-11T08:12:22;18.60;45.70
45803;DHT22;31504;51.716;9.184;2023-03-11T08:15:22;18.60;45.50
45803;DHT22;31504;51.716;9.184;2023-03-11T08:18:23;18.50;45.60
45803;DHT22;31504;51.716;9.184;2023-03-11T08:21:24;18.50;45.80
45803;DHT22;31504;51.716;9.184;2023-03-11T08:24:25;18.50;45.90
45803;DHT22;31504;51.716;9.184;2023-03-11T08:27:26;18.60;45.20
45803;DHT22;31504;51.716;9.184;2023-03-11T08:30:27;18.50;45.60
45803;DHT22;31504;51.716;9.184;2023-03-11T08:33:27;18.60;45.00
45803;DHT22;31504;51.716;9.184;2023-03-11T08:36:28;18.80;44.60
45803;DHT22;31504;51.716;9.184;2023-03-11T08:39:28;18.70;46.20
45803;DHT22;31504;51.716;9.184;2023-03-11T08:42:29;18.60;45.40
45803;DHT22;31504;51.716;9.184;2023-03-11T08:45:29;18.50;45.30
45803;DHT22;31504;51.716;9.184;2023-03-11T08:48:29;18.60;45.80
45803;DHT22;31504;51.716;9.184;2023-03-11T08:51:31;18.50;45.80
45803;DHT22;31504;51.716;9.184;2023-03-11T08:54:31;18.50;45.80
45803;DHT22;31504;51.716;9.184;2023-03-11T08:57:32;18.50;45.60
45803;DHT22;31504;51.716;9.184;2023-03-11T09:00:32;18.60;45.40
45803;DHT22;31504;51.716;9.184;2023-03-11T09:03:33;18.70;44.10
45803;DHT22;31504;51.716;9.184;2023-03-11T09:06:40;18.70;44.50
45803;DHT22;31504;51.716;9.184;2023-03-11T09:09:41;18.90;44.30
45803;DHT22;31504;51.716;9.184;2023-03-11T09:12:41;19.00;44.60
45803;DHT22;31504;51.716;9.184;2023-03-11T09:15:41;18.80;45.10
45803;DHT22;31504;51.716;9.184;2023-03-11T09:18:42;18.70;45.10
45803;DHT22;31504;51.716;9.184;2023-03-11T09:21:42;18.80;43.80
45803;DHT22;31504;51.716;9.184;2023-03-11T09:24:43;18.80;45.20
45803;DHT22;31504;51.716;9.184;2023-03-11T09:27:43;18.60;45.40
45803;DHT22;31504;51.716;9.184;2023-03-11T09:30:44;18.50;45.60
45803;DHT22;31504;51.716;9.184;2023-03-11T09:33:45;18.60;44.80
45803;DHT22;31504;51.716;9.184;2023-03-11T09:36:45;18.80;44.10
45803;DHT22;31504;51.716;9.184;2023-03-11T09:39:46;18.80;45.60
45803;DHT22;31504;51.716;9.184;2023-03-11T09:42:56;18.80;43.90
45803;DHT22;31504;51.716;9.184;2023-03-11T09:46:12;18.80;44.80
45803;DHT22;31504;51.716;9.184;2023-03-11T09:55:59;18.70;44.60
45803;DHT22;31504;51.716;9.184;2023-03-11T09:59:01;18.70;45.10
45803;DHT22;31504;51.716;9.184;2023-03-11T10:02:03;18.60;44.80
45803;DHT22;31504;51.716;9.184;2023-03-11T10:08:47;18.70;44.50
45803;DHT22;31504;51.716;9.184;2023-03-11T10:14:52;18.60;44.80
45803;DHT22;31504;51.716;9.184;2023-03-11T10:27:08;18.80;44.30
45803;DHT22;31504;51.716;9.184;2023-03-11T10:33:20;18.80;44.50
45803;DHT22;31504;51.716;9.184;2023-03-11T10:36:25;18.90;43.90
45803;DHT22;31504;51.716;9.184;2023-03-11T10:39:28;19.00;42.30
45803;DHT22;31504;51.716;9.184;2023-03-11T10:42:29;19.10;43.90
45803;DHT22;31504;51.716;9.184;2023-03-11T10:45:39;19.00;43.50
45803;DHT22;31504;51.716;9.184;2023-03-11T10:48:42;19.00;42.90
45803;DHT22;31504;51.716;9.184;2023-03-11T10:51:44;18.90;44.10
45803;DHT22;31504;51.716;9.184;2023-03-11T10:54:45;18.90;44.00
45803;DHT22;31504;51.716;9.184;2023-03-11T10:57:47;18.50;45.70
45803;DHT22;31504;51.716;9.184;2023-03-11T11:00:58;18.20;46.50
45803;DHT22;31504;51.716;9.184;2023-03-11T11:03:59;18.10;46.60
45803;DHT22;31504;51.716;9.184;2023-03-11T11:10:20;18.10;46.80
45803;DHT22;31504;51.716;9.184;2023-03-11T11:13:22;18.10;46.90
45803;DHT22;31504;51.716;9.184;2023-03-11T11:16:23;18.10;47.00
45803;DHT22;31504;51.716;9.184;2023-03-11T11:19:24;18.00;46.20
45803;DHT22;31504;51.716;9.184;2023-03-11T11:22:26;18.20;45.60
45803;DHT22;31504;51.716;9.184;2023-03-11T11:25:35;18.50;44.00
45803;DHT22;31504;51.716;9.184;2023-03-11T11:28:35;18.70;44.50
45803;DHT22;31504;51.716;9.184;2023-03-11T11:31:37;18.80;44.20
45803;DHT22;31504;51.716;9.184;2023-03-11T11:34:38;18.80;43.90
45803;DHT22;31504;51.716;9.184;2023-03-11T11:37:42;18.80;44.10
45803;DHT22;31504;51.716;9.184;2023-03-11T11:40:45;18.80;44.30
45803;DHT22;31504;51.716;9.184;2023-03-11T11:43:47;18.80;42.50
45803;DHT22;31504;51.716;9.184;2023-03-11T11:46:54;19.00;43.60
45803;DHT22;31504;51.716;9.184;2023-03-11T11:50:00;19.00;42.10
45803;DHT22;31504;51.716;9.184;2023-03-11T11:53:03;19.10;42.10
45803;DHT22;31504;51.716;9.184;2023-03-11T11:56:06;19.10;41.80
45803;DHT22;31504;51.716;9.184;2023-03-11T11:59:12;19.10;41.60
45803;DHT22;31504;51.716;9.184;2023-03-11T12:05:25;19.00;43.20
45803;DHT22;31504;51.716;9.184;2023-03-11T12:11:49;18.90;44.60
45803;DHT22;31504;51.716;9.184;2023-03-11T12:14:57;18.80;43.00
45803;DHT22;31504;51.716;9.184;2023-03-11T12:18:00;18.80;43.70
45803;DHT22;31504;51.716;9.184;2023-03-11T12:21:06;18.90;43.90
45803;DHT22;31504;51.716;9.184;2023-03-11T12:27:24;18.90;41.90
45803;DHT22;31504;51.716;9.184;2023-03-11T12:30:27;19.10;41.80
45803;DHT22;31504;51.716;9.184;2023-03-11T12:33:30;19.20;41.00
45803;DHT22;31504;51.716;9.184;2023-03-11T12:36:33;19.10;43.00
45803;DHT22;31504;51.716;9.184;2023-03-11T12:39:34;19.10;41.40
45803;DHT22;31504;51.716;9.184;2023-03-11T12:42:37;19.30;42.70
45803;DHT22;31504;51.716;9.184;2023-03-11T12:45:48;19.40;40.40
45803;DHT22;31504;51.716;9.184;2023-03-11T12:49:04;19.60;40.00
45803;DHT22;31504;51.716;9.184;2023-03-11T12:58:22;19.60;39.40
45803;DHT22;31504;51.716;9.184;2023-03-11T13:04:55;19.40;39.20
45803;DHT22;31504;51.716;9.184;2023-03-11T13:08:07;19.50;39.00
45803;DHT22;31504;51.716;9.184;2023-03-11T13:14:29;19.50;38.90
45803;DHT22;31504;51.716;9.184;2023-03-11T13:17:30;19.60;39.20
45803;DHT22;31504;51.716;9.184;2023-03-11T13:23:38;19.50;39.00
45803;DHT22;31504;51.716;9.184;2023-03-11T13:26:40;19.60;38.30
45803;DHT22;31504;51.716;9.184;2023-03-11T13:29:48;19.70;38.30
45803;DHT22;31504;51.716;9.184;2023-03-11T13:35:59;19.70;38.00
45803;DHT22;31504;51.716;9.184;2023-03-11T13:42:30;19.70;38.10
45803;DHT22;31504;51.716;9.184;2023-03-11T13:45:33;19.60;39.10
45803;DHT22;31504;51.716;9.184;2023-03-11T13:48:35;19.60;38.40
45803;DHT22;31504;51.716;9.184;2023-03-11T13:51:42;19.70;37.90
45803;DHT22;31504;51.716;9.184;2023-03-11T13:54:45;19.90;36.90
45803;DHT22;31504;51.716;9.184;2023-03-11T13:58:29;19.40;35.20
45803;DHT22;31504;51.716;9.184;2023-03-11T14:01:13;19.10;40.20
45803;DHT22;31504;51.716;9.184;2023-03-11T14:04:16;18.80;38.90
45803;DHT22;31504;51.716;9.184;2023-03-11T14:07:22;18.90;37.40
45803;DHT22;31504;51.716;9.184;2023-03-11T14:10:27;19.10;37.80
45803;DHT22;31504;51.716;9.184;2023-03-11T14:13:29;19.20;39.40
45803;DHT22;31504;51.716;9.184;2023-03-11T14:16:30;19.20;37.30
45803;DHT22;31504;51.716;9.184;2023-03-11T14:19:34;19.30;38.30
45803;DHT22;31504;51.716;9.184;2023-03-11T14:22:37;19.40;36.90
45803;DHT22;31504;51.716;9.184;2023-03-11T14:25:38;19.50;37.20
45803;DHT22;31504;51.716;9.184;2023-03-11T14:28:41;19.70;36.70
45803;DHT22;31504;51.716;9.184;2023-03-11T14:31:43;19.90;36.60
45803;DHT22;31504;51.716;9.184;2023-03-11T14:34:44;19.80;36.80
45803;DHT22;31504;51.716;9.184;2023-03-11T14:37:45;19.70;36.80
45803;DHT22;31504;51.716;9.184;2023-03-11T14:40:48;19.60;36.80
45803;DHT22;31504;51.716;9.184;2023-03-11T14:43:49;19.70;36.80
45803;DHT22;31504;51.716;9.184;2023-03-11T14:46:52;19.70;37.00
45803;DHT22;31504;51.716;9.184;2023-03-11T14:49:54;19.70;36.90
45803;DHT22;31504;51.716;9.184;2023-03-11T14:53:02;19.70;37.00
45803;DHT22;31504;51.716;9.184;2023-03-11T14:56:07;19.70;37.30
45803;DHT22;31504;51.716;9.184;2023-03-11T14:59:17;19.80;37.00
45803;DHT22;31504;51.716;9.184;2023-03-11T15:08:47;19.40;37.90
45803;DHT22;31504;51.716;9.184;2023-03-11T15:11:50;19.40;37.90
45803;DHT22;31504;51.716;9.184;2023-03-11T15:14:51;19.50;37.60
45803;DHT22;31504;51.716;9.184;2023-03-11T15:17:52;19.60;37.40
45803;DHT22;31504;51.716;9.184;2023-03-11T15:21:00;19.60;37.30
45803;DHT22;31504;51.716;9.184;2023-03-11T15:24:01;19.60;37.20
45803;DHT22;31504;51.716;9.184;2023-03-11T15:27:05;19.60;37.10
45803;DHT22;31504;51.716;9.184;2023-03-11T15:33:22;19.60;37.20
45803;DHT22;31504;51.716;9.184;2023-03-11T15:36:31;19.70;37.20
45803;DHT22;31504;51.716;9.184;2023-03-11T15:42:32;19.70;37.50
45803;DHT22;31504;51.716;9.184;2023-03-11T15:45:33;19.60;37.60
45803;DHT22;31504;51.716;9.184;2023-03-11T15:48:33;19.50;38.30
45803;DHT22;31504;51.716;9.184;2023-03-11T15:51:34;19.50;38.10
45803;DHT22;31504;51.716;9.184;2023-03-11T15:54:34;19.60;37.90
45803;DHT22;31504;51.716;9.184;2023-03-11T15:57:34;19.60;38.10
45803;DHT22;31504;51.716;9.184;2023-03-11T16:00:35;19.70;38.10
45803;DHT22;31504;51.716;9.184;2023-03-11T16:03:36;19.60;38.80
45803;DHT22;31504;51.716;9.184;2023-03-11T16:06:37;19.50;38.70
45803;DHT22;31504;51.716;9.184;2023-03-11T16:09:38;19.60;38.20
45803;DHT22;31504;51.716;9.184;2023-03-11T16:12:38;19.70;38.20
45803;DHT22;31504;51.716;9.184;2023-03-11T16:15:40;19.70;38.10
45803;DHT22;31504;51.716;9.184;2023-03-11T16:18:41;19.70;38.10
45803;DHT22;31504;51.716;9.184;2023-03-11T16:21:42;19.70;38.10
45803;DHT22;31504;51.716;9.184;2023-03-11T16:24:46;19.60;38.80
45803;DHT22;31504;51.716;9.184;2023-03-11T16:27:48;19.60;38.90
45803;DHT22;31504;51.716;9.184;2023-03-11T16:30:49;19.60;38.80
45803;DHT22;31504;51.716;9.184;2023-03-11T16:33:50;19.60;38.60
45803;DHT22;31504;51.716;9.184;2023-03-11T16:36:50;19.60;39.10
45803;DHT22;31504;51.716;9.184;2023-03-11T16:39:50;19.40;39.40
45803;DHT22;31504;51.716;9.184;2023-03-11T16:43:08;19.30;39.30
45803;DHT22;31504;51.716;9.184;2023-03-11T16:46:08;19.40;39.20
45803;DHT22;31504;51.716;9.184;2023-03-11T16:49:09;19.50;39.10
45803;DHT22;31504;51.716;9.184;2023-03-11T16:52:09;19.50;39.10
45803;DHT22;31504;51.716;9.184;2023-03-11T16:55:10;19.50;39.30
45803;DHT22;31504;51.716;9.184;2023-03-11T16:58:11;19.30;39.50
45803;DHT22;31504;51.716;9.184;2023-03-11T17:01:11;19.30;39.90
45803;DHT22;31504;51.716;9.184;2023-03-11T17:04:11;19.30;39.90
45803;DHT22;31504;51.716;9.184;2023-03-11T17:07:12;19.40;39.90
45803;DHT22;31504;51.716;9.184;2023-03-11T17:10:12;19.40;40.10
45803;DHT22;31504;51.716;9.184;2023-03-11T17:13:13;19.40;40.10
45803;DHT22;31504;51.716;9.184;2023-03-11T17:16:14;19.40;40.30
45803;DHT22;31504;51.716;9.184;2023-03-11T17:19:14;19.30;40.80
45803;DHT22;31504;51.716;9.184;2023-03-11T17:22:15;19.40;40.90
45803;DHT22;31504;51.716;9.184;2023-03-11T17:25:15;19.50;40.70
45803;DHT22;31504;51.716;9.184;2023-03-11T17:28:16;19.60;40.70
45803;DHT22;31504;51.716;9.184;2023-03-11T17:31:16;19.50;40.80
45803;DHT22;31504;51.716;9.184;2023-03-11T17:34:16;19.50;40.80
45803;DHT22;31504;51.716;9.184;2023-03-11T17:37:17;19.50;40.90
45803;DHT22;31504;51.716;9.184;2023-03-11T17:40:18;19.40;41.20
45803;DHT22;31504;51.716;9.184;2023-03-11T17:43:18;19.40;41.30
45803;DHT22;31504;51.716;9.184;2023-03-11T17:46:19;19.50;41.20
45803;DHT22;31504;51.716;9.184;2023-03-11T17:49:21;19.60;41.10
45803;DHT22;31504;51.716;9.184;2023-03-11T17:52:22;19.60;40.90
45803;DHT22;31504;51.716;9.184;2023-03-11T17:55:22;19.30;41.60
45803;DHT22;31504;51.716;9.184;2023-03-11T17:58:23;19.20;42.00
45803;DHT22;31504;51.716;9.184;2023-03-11T18:01:25;19.00;42.40
45803;DHT22;31504;51.716;9.184;2023-03-11T18:04:26;18.90;42.70
45803;DHT22;31504;51.716;9.184;2023-03-11T18:07:26;18.90;42.90
45803;DHT22;31504;51.716;9.184;2023-03-11T18:10:27;18.80;43.00
45803;DHT22;31504;51.716;9.184;2023-03-11T18:13:27;18.90;43.20
45803;DHT22;31504;51.716;9.184;2023-03-11T18:16:28;18.80;43.70
45803;DHT22;31504;51.716;9.184;2023-03-11T18:19:30;18.70;43.50
45803;DHT22;31504;51.716;9.184;2023-03-11T18:22:31;18.80;43.80
45803;DHT22;31504;51.716;9.184;2023-03-11T18:25:32;18.90;43.40
45803;DHT22;31504;51.716;9.184;2023-03-11T18:28:33;18.90;43.30
45803;DHT22;31504;51.716;9.184;2023-03-11T18:31:34;18.80;43.40
45803;DHT22;31504;51.716;9.184;2023-03-11T18:34:34;18.80;43.40
45803;DHT22;31504;51.716;9.184;2023-03-11T18:37:36;18.80;43.50
45803;DHT22;31504;51.716;9.184;2023-03-11T18:40:37;18.80;43.70
45803;DHT22;31504;51.716;9.184;2023-03-11T18:43:37;18.70;43.80
45803;DHT22;31504;51.716;9.184;2023-03-11T18:46:38;18.70;43.80
45803;DHT22;31504;51.716;9.184;2023-03-11T18:49:41;18.70;43.80
45803;DHT22;31504;51.716;9.184;2023-03-11T18:52:41;18.70;43.80
45803;DHT22;31504;51.716;9.184;2023-03-11T18:55:42;18.90;44.10
45803;DHT22;31504;51.716;9.184;2023-03-11T18:58:42;19.30;43.30
45803;DHT22;31504;51.716;9.184;2023-03-11T19:01:43;19.40;42.50
45803;DHT22;31504;51.716;9.184;2023-03-11T19:04:43;19.30;42.60
45803;DHT22;31504;51.716;9.184;2023-03-11T19:07:43;19.20;42.70
45803;DHT22;31504;51.716;9.184;2023-03-11T19:10:44;19.20;42.70
45803;DHT22;31504;51.716;9.184;2023-03-11T19:13:45;19.30;42.40
45803;DHT22;31504;51.716;9.184;2023-03-11T19:16:45;19.40;42.20
45803;DHT22;31504;51.716;9.184;2023-03-11T19:19:46;19.30;42.30
45803;DHT22;31504;51.716;9.184;2023-03-11T19:22:46;19.20;42.20
45803;DHT22;31504;51.716;9.184;2023-03-11T19:25:47;19.30;42.20
45803;DHT22;31504;51.716;9.184;2023-03-11T19:28:49;19.40;41.80
45803;DHT22;31504;51.716;9.184;2023-03-11T19:31:49;19.50;41.70
45803;DHT22;31504;51.716;9.184;2023-03-11T19:34:50;19.50;41.30
45803;DHT22;31504;51.716;9.184;2023-03-11T19:37:50;19.40;41.50
45803;DHT22;31504;51.716;9.184;2023-03-11T19:40:58;19.30;42.40
45803;DHT22;31504;51.716;9.184;2023-03-11T19:43:58;19.20;41.60
45803;DHT22;31504;51.716;9.184;2023-03-11T19:47:00;19.40;41.40
45803;DHT22;31504;51.716;9.184;2023-03-11T19:50:00;19.30;41.40
45803;DHT22;31504;51.716;9.184;2023-03-11T19:53:00;19.30;41.10
45803;DHT22;31504;51.716;9.184;2023-03-11T19:56:01;19.30;41.60
45803;DHT22;31504;51.716;9.184;2023-03-11T19:59:03;19.20;41.70
45803;DHT22;31504;51.716;9.184;2023-03-11T20:02:03;19.20;41.50
45803;DHT22;31504;51.716;9.184;2023-03-11T20:05:05;19.30;41.00
45803;DHT22;31504;51.716;9.184;2023-03-11T20:08:06;19.30;41.20
45803;DHT22;31504;51.716;9.184;2023-03-11T20:11:07;19.40;41.10
45803;DHT22;31504;51.716;9.184;2023-03-11T20:14:08;19.30;40.80
45803;DHT22;31504;51.716;9.184;2023-03-11T20:17:09;19.20;41.90
45803;DHT22;31504;51.716;9.184;2023-03-11T20:20:09;19.10;42.20
45803;DHT22;31504;51.716;9.184;2023-03-11T20:23:10;19.10;41.20
45803;DHT22;31504;51.716;9.184;2023-03-11T20:26:12;19.20;41.20
45803;DHT22;31504;51.716;9.184;2023-03-11T20:29:12;19.20;40.70
45803;DHT22;31504;51.716;9.184;2023-03-11T20:32:13;19.30;40.80